Schuyler, NE (68661)

9:07 AM CST on March 03, 2015 (GMT -0600)
Keating Lake | Change Station
CLOSE
Current Station
Personal Weather Station
Location: Schuyler, NE
Elevation: 1339 ft
Nearby Weather Stations
Active Advisory: Winter Weather Statement

Elev 1339 ft 41.43 °N, 97.05 °W | Updated 1 minute ago

Overcast
Overcast
31.8 °F
Feels Like 28 °F
N
4.0
Wind Variable Wind from WNW
Gusts 7.0 mph

Today
High -- | Low -- °F
--% Chance of Precip.
Yesterday
High -- | Low -- °F
Precip. -- in
6:59 AM 6:21 PM
Waxing Gibbous, 96% visible
Pressure 29.77 in
Visibility 9.0 miles
Clouds Mostly Cloudy 3000 ft
Overcast 3600 ft
Windchill 28 °F
Dew Point 28 °F
Humidity 86%
Rainfall 0.00 in
Snow Depth Not available.
UV 0 out of 12
Pollen 1.10 out of 12
Air Quality Not available.
Flu Activity Not available.
METAR KOLU 031455Z AUTO 29010KT 9SM BKN030 OVC036 M01/M06 A2977 RMK AO1 52041

More Conditions Fewer Conditions

Pressure 29.77 in
Visibility 9.0 miles
Clouds Mostly Cloudy 3000 ft
Overcast 3600 ft
Windchill 28 °F
Dew Point 28 °F
Humidity 86%
Rainfall 0.00 in
Snow Depth Not available.
UV 0 out of 12
Pollen 1.10 out of 12
Air Quality Not available.
Flu Activity Not available.
METAR KOLU 031455Z AUTO 29010KT 9SM BKN030 OVC036 M01/M06 A2977 RMK AO1 52041

More Conditions Fewer Conditions

10-Day Weather Forecast

Almanac

Astronomy

Mar. 03, 2015 Rise Set
Actual Time
Civil Twilight
Nautical Twilight
Astronomical Twilight
Moon
Length of Visible Light
Length of Day
Tomorrow will be .
, % of the Moon is Illuminated

Today's Extremes

State Highs State Lows

Community

WunderPhotos

Upload Photos

1,802,133 photos uploaded!

WunderBlogs® & News

Nearby

Air Quality

  Air Quality AQ Index Pollutant
Not available.

Snow Depth

Station Depth Elevation

Earthquake Activity

City Distance Mag. Time & Date
Minimum magnitude displayed is 2.5.

Coastal Water Temperatures

Place Temperature

Nearby Weather Stations

Winter Weather Statement
Statement as of 8:56 AM CST on March 03, 2015

... Freezing Rain Advisory will expire at 9 am CST this morning...

Temperatures had climbed above freezing along and south of
Interstate 80 at mid morning with drizzle expected to end as
colder air moves into the area behind a strong cold front.
Although temperatures may hold around freezing in the Omaha area
and to the west and north the incoming cold air will also bring an
end to drizzle through 10 am.